sensor_id;sensor_type;location;lat;lon;timestamp;P1;durP1;ratioP1;P2;durP2;ratioP2
5882;SDS011;2967;51.488;6.618;2023-04-24T00:04:59;1.83;;;1.60;;
5882;SDS011;2967;51.488;6.618;2023-04-24T00:10:04;5.37;;;1.67;;
5882;SDS011;2967;51.488;6.618;2023-04-24T00:15:08;3.87;;;2.30;;
5882;SDS011;2967;51.488;6.618;2023-04-24T00:20:13;4.83;;;2.30;;
5882;SDS011;2967;51.488;6.618;2023-04-24T00:25:16;2.53;;;1.97;;
5882;SDS011;2967;51.488;6.618;2023-04-24T00:30:19;3.10;;;2.27;;
5882;SDS011;2967;51.488;6.618;2023-04-24T00:35:23;5.70;;;2.40;;
5882;SDS011;2967;51.488;6.618;2023-04-24T00:40:26;3.80;;;2.63;;
5882;SDS011;2967;51.488;6.618;2023-04-24T00:45:29;5.43;;;3.00;;
5882;SDS011;2967;51.488;6.618;2023-04-24T00:50:35;12.70;;;3.23;;
5882;SDS011;2967;51.488;6.618;2023-04-24T00:55:38;5.17;;;3.20;;
5882;SDS011;2967;51.488;6.618;2023-04-24T01:00:41;8.87;;;3.97;;
5882;SDS011;2967;51.488;6.618;2023-04-24T01:05:45;10.00;;;4.13;;
5882;SDS011;2967;51.488;6.618;2023-04-24T01:10:48;4.43;;;4.07;;
5882;SDS011;2967;51.488;6.618;2023-04-24T01:15:53;4.80;;;3.60;;
5882;SDS011;2967;51.488;6.618;2023-04-24T01:20:58;4.80;;;3.90;;
5882;SDS011;2967;51.488;6.618;2023-04-24T01:26:03;5.60;;;4.00;;
5882;SDS011;2967;51.488;6.618;2023-04-24T01:31:06;6.90;;;4.27;;
5882;SDS011;2967;51.488;6.618;2023-04-24T01:36:09;5.53;;;4.20;;
5882;SDS011;2967;51.488;6.618;2023-04-24T01:41:15;7.40;;;5.70;;
5882;SDS011;2967;51.488;6.618;2023-04-24T01:46:18;6.60;;;4.77;;
5882;SDS011;2967;51.488;6.618;2023-04-24T01:51:21;8.90;;;5.93;;
5882;SDS011;2967;51.488;6.618;2023-04-24T01:56:25;7.17;;;5.20;;
5882;SDS011;2967;51.488;6.618;2023-04-24T02:01:35;9.80;;;5.57;;
5882;SDS011;2967;51.488;6.618;2023-04-24T02:06:38;8.10;;;6.10;;
5882;SDS011;2967;51.488;6.618;2023-04-24T02:11:43;9.70;;;4.90;;
5882;SDS011;2967;51.488;6.618;2023-04-24T02:16:45;10.50;;;5.93;;
5882;SDS011;2967;51.488;6.618;2023-04-24T02:21:48;12.07;;;6.60;;
5882;SDS011;2967;51.488;6.618;2023-04-24T02:26:53;9.40;;;7.30;;
5882;SDS011;2967;51.488;6.618;2023-04-24T02:31:55;12.43;;;8.87;;
5882;SDS011;2967;51.488;6.618;2023-04-24T02:36:58;13.10;;;9.20;;
5882;SDS011;2967;51.488;6.618;2023-04-24T02:42:02;11.20;;;8.83;;
5882;SDS011;2967;51.488;6.618;2023-04-24T02:47:05;18.27;;;8.37;;
5882;SDS011;2967;51.488;6.618;2023-04-24T02:52:08;9.50;;;7.83;;
5882;SDS011;2967;51.488;6.618;2023-04-24T02:57:13;12.83;;;10.33;;
5882;SDS011;2967;51.488;6.618;2023-04-24T03:02:16;13.43;;;10.90;;
5882;SDS011;2967;51.488;6.618;2023-04-24T03:07:19;16.37;;;9.77;;
5882;SDS011;2967;51.488;6.618;2023-04-24T03:12:23;12.70;;;9.80;;
5882;SDS011;2967;51.488;6.618;2023-04-24T03:17:26;16.07;;;10.17;;
5882;SDS011;2967;51.488;6.618;2023-04-24T03:22:29;20.90;;;10.27;;
5882;SDS011;2967;51.488;6.618;2023-04-24T03:27:35;17.50;;;10.90;;
5882;SDS011;2967;51.488;6.618;2023-04-24T03:32:45;14.93;;;10.23;;
5882;SDS011;2967;51.488;6.618;2023-04-24T03:37:53;16.20;;;10.63;;
5882;SDS011;2967;51.488;6.618;2023-04-24T03:43:16;15.50;;;10.93;;
5882;SDS011;2967;51.488;6.618;2023-04-24T03:48:19;15.67;;;9.67;;
5882;SDS011;2967;51.488;6.618;2023-04-24T03:53:23;17.87;;;13.50;;
5882;SDS011;2967;51.488;6.618;2023-04-24T03:58:27;13.70;;;10.30;;
5882;SDS011;2967;51.488;6.618;2023-04-24T04:03:30;14.63;;;9.70;;
5882;SDS011;2967;51.488;6.618;2023-04-24T04:08:33;17.23;;;10.50;;
5882;SDS011;2967;51.488;6.618;2023-04-24T04:13:38;22.30;;;10.27;;
5882;SDS011;2967;51.488;6.618;2023-04-24T04:18:41;12.90;;;9.33;;
5882;SDS011;2967;51.488;6.618;2023-04-24T04:23:44;14.60;;;9.30;;
5882;SDS011;2967;51.488;6.618;2023-04-24T04:28:59;20.43;;;10.37;;
5882;SDS011;2967;51.488;6.618;2023-04-24T04:34:03;14.40;;;8.83;;
5882;SDS011;2967;51.488;6.618;2023-04-24T04:39:07;12.30;;;8.13;;
5882;SDS011;2967;51.488;6.618;2023-04-24T04:44:35;10.93;;;8.13;;
5882;SDS011;2967;51.488;6.618;2023-04-24T04:49:41;10.27;;;8.30;;
5882;SDS011;2967;51.488;6.618;2023-04-24T04:54:52;13.80;;;8.97;;
5882;SDS011;2967;51.488;6.618;2023-04-24T04:59:59;10.70;;;7.93;;
5882;SDS011;2967;51.488;6.618;2023-04-24T05:05:14;10.97;;;7.20;;
5882;SDS011;2967;51.488;6.618;2023-04-24T05:10:18;10.50;;;7.17;;
5882;SDS011;2967;51.488;6.618;2023-04-24T05:15:25;20.17;;;10.70;;
5882;SDS011;2967;51.488;6.618;2023-04-24T05:20:27;11.50;;;8.20;;
5882;SDS011;2967;51.488;6.618;2023-04-24T05:25:30;10.73;;;7.77;;
5882;SDS011;2967;51.488;6.618;2023-04-24T05:30:42;11.83;;;7.27;;
5882;SDS011;2967;51.488;6.618;2023-04-24T05:35:47;12.93;;;7.10;;
5882;SDS011;2967;51.488;6.618;2023-04-24T05:40:51;8.53;;;7.63;;
5882;SDS011;2967;51.488;6.618;2023-04-24T05:45:55;11.23;;;7.20;;
5882;SDS011;2967;51.488;6.618;2023-04-24T05:50:58;8.43;;;7.17;;
5882;SDS011;2967;51.488;6.618;2023-04-24T05:56:00;8.03;;;7.23;;
5882;SDS011;2967;51.488;6.618;2023-04-24T06:01:05;8.97;;;8.00;;
5882;SDS011;2967;51.488;6.618;2023-04-24T06:06:08;10.03;;;7.80;;
5882;SDS011;2967;51.488;6.618;2023-04-24T06:11:11;10.43;;;8.07;;
5882;SDS011;2967;51.488;6.618;2023-04-24T06:16:15;9.27;;;7.97;;
5882;SDS011;2967;51.488;6.618;2023-04-24T06:21:24;10.23;;;7.77;;
5882;SDS011;2967;51.488;6.618;2023-04-24T06:26:27;10.83;;;7.70;;
5882;SDS011;2967;51.488;6.618;2023-04-24T06:31:31;10.57;;;8.10;;
5882;SDS011;2967;51.488;6.618;2023-04-24T06:36:38;9.97;;;7.00;;
5882;SDS011;2967;51.488;6.618;2023-04-24T06:41:40;8.30;;;7.10;;
5882;SDS011;2967;51.488;6.618;2023-04-24T06:46:53;11.30;;;8.60;;
5882;SDS011;2967;51.488;6.618;2023-04-24T06:51:56;5.97;;;5.37;;
5882;SDS011;2967;51.488;6.618;2023-04-24T06:57:00;5.73;;;4.43;;
5882;SDS011;2967;51.488;6.618;2023-04-24T07:02:05;5.77;;;5.20;;
5882;SDS011;2967;51.488;6.618;2023-04-24T07:07:07;4.33;;;3.20;;
5882;SDS011;2967;51.488;6.618;2023-04-24T07:12:14;6.27;;;3.00;;
5882;SDS011;2967;51.488;6.618;2023-04-24T07:17:19;3.10;;;2.80;;
5882;SDS011;2967;51.488;6.618;2023-04-24T07:22:22;10.20;;;6.63;;
5882;SDS011;2967;51.488;6.618;2023-04-24T07:27:25;2.10;;;1.90;;
5882;SDS011;2967;51.488;6.618;2023-04-24T07:32:29;2.23;;;1.90;;
5882;SDS011;2967;51.488;6.618;2023-04-24T07:37:31;1.97;;;1.77;;
5882;SDS011;2967;51.488;6.618;2023-04-24T07:42:35;1.80;;;1.53;;
5882;SDS011;2967;51.488;6.618;2023-04-24T07:47:42;2.00;;;1.63;;
5882;SDS011;2967;51.488;6.618;2023-04-24T07:52:46;3.57;;;1.53;;
5882;SDS011;2967;51.488;6.618;2023-04-24T07:57:49;1.93;;;1.50;;
5882;SDS011;2967;51.488;6.618;2023-04-24T08:02:53;1.20;;;1.10;;
5882;SDS011;2967;51.488;6.618;2023-04-24T08:07:56;2.17;;;1.33;;
5882;SDS011;2967;51.488;6.618;2023-04-24T08:12:58;1.40;;;1.30;;
5882;SDS011;2967;51.488;6.618;2023-04-24T08:18:03;1.50;;;1.40;;
5882;SDS011;2967;51.488;6.618;2023-04-24T08:23:06;1.47;;;1.13;;
5882;SDS011;2967;51.488;6.618;2023-04-24T08:28:09;1.97;;;1.47;;
5882;SDS011;2967;51.488;6.618;2023-04-24T08:33:13;1.30;;;1.20;;
5882;SDS011;2967;51.488;6.618;2023-04-24T08:38:15;1.03;;;1.00;;
5882;SDS011;2967;51.488;6.618;2023-04-24T08:43:18;6.40;;;4.80;;
5882;SDS011;2967;51.488;6.618;2023-04-24T08:48:25;1.13;;;1.00;;
5882;SDS011;2967;51.488;6.618;2023-04-24T08:53:32;2.70;;;2.03;;
5882;SDS011;2967;51.488;6.618;2023-04-24T08:58:35;5.47;;;4.90;;
5882;SDS011;2967;51.488;6.618;2023-04-24T09:03:40;8.23;;;6.60;;
5882;SDS011;2967;51.488;6.618;2023-04-24T09:08:43;7.97;;;7.00;;
5882;SDS011;2967;51.488;6.618;2023-04-24T09:13:48;8.53;;;6.70;;
5882;SDS011;2967;51.488;6.618;2023-04-24T09:18:52;8.53;;;6.30;;
5882;SDS011;2967;51.488;6.618;2023-04-24T09:23:58;8.83;;;6.47;;
5882;SDS011;2967;51.488;6.618;2023-04-24T09:29:01;6.73;;;5.83;;
5882;SDS011;2967;51.488;6.618;2023-04-24T09:34:07;10.80;;;6.43;;
5882;SDS011;2967;51.488;6.618;2023-04-24T09:39:11;11.53;;;5.60;;
5882;SDS011;2967;51.488;6.618;2023-04-24T09:44:16;6.57;;;5.87;;
5882;SDS011;2967;51.488;6.618;2023-04-24T09:49:24;8.43;;;6.70;;
5882;SDS011;2967;51.488;6.618;2023-04-24T09:54:27;10.30;;;6.20;;
5882;SDS011;2967;51.488;6.618;2023-04-24T09:59:31;7.07;;;5.20;;
5882;SDS011;2967;51.488;6.618;2023-04-24T10:04:38;14.37;;;5.70;;
5882;SDS011;2967;51.488;6.618;2023-04-24T10:09:41;16.40;;;4.80;;
5882;SDS011;2967;51.488;6.618;2023-04-24T10:14:45;12.90;;;4.80;;
5882;SDS011;2967;51.488;6.618;2023-04-24T10:19:50;18.37;;;4.77;;
5882;SDS011;2967;51.488;6.618;2023-04-24T10:24:54;14.30;;;5.00;;
5882;SDS011;2967;51.488;6.618;2023-04-24T10:29:56;7.33;;;4.10;;
5882;SDS011;2967;51.488;6.618;2023-04-24T10:35:01;13.73;;;4.70;;
5882;SDS011;2967;51.488;6.618;2023-04-24T10:40:05;10.00;;;4.97;;
5882;SDS011;2967;51.488;6.618;2023-04-24T10:45:16;12.03;;;4.30;;
5882;SDS011;2967;51.488;6.618;2023-04-24T10:50:20;15.57;;;4.13;;
5882;SDS011;2967;51.488;6.618;2023-04-24T10:55:42;15.00;;;4.60;;
5882;SDS011;2967;51.488;6.618;2023-04-24T11:00:55;10.40;;;4.63;;
5882;SDS011;2967;51.488;6.618;2023-04-24T11:06:01;13.40;;;5.33;;
5882;SDS011;2967;51.488;6.618;2023-04-24T11:11:09;13.50;;;4.90;;
5882;SDS011;2967;51.488;6.618;2023-04-24T11:16:14;9.63;;;5.10;;
5882;SDS011;2967;51.488;6.618;2023-04-24T11:21:19;10.00;;;3.70;;
5882;SDS011;2967;51.488;6.618;2023-04-24T11:26:22;14.63;;;4.53;;
5882;SDS011;2967;51.488;6.618;2023-04-24T11:31:35;10.40;;;3.73;;
5882;SDS011;2967;51.488;6.618;2023-04-24T11:36:42;16.23;;;3.50;;
5882;SDS011;2967;51.488;6.618;2023-04-24T11:41:45;9.70;;;3.40;;
5882;SDS011;2967;51.488;6.618;2023-04-24T11:46:48;9.90;;;3.77;;
5882;SDS011;2967;51.488;6.618;2023-04-24T11:51:55;13.20;;;3.87;;
5882;SDS011;2967;51.488;6.618;2023-04-24T11:57:03;10.80;;;3.23;;
5882;SDS011;2967;51.488;6.618;2023-04-24T12:02:07;7.07;;;3.20;;
5882;SDS011;2967;51.488;6.618;2023-04-24T12:07:12;8.93;;;3.27;;
5882;SDS011;2967;51.488;6.618;2023-04-24T12:12:15;5.17;;;3.27;;
5882;SDS011;2967;51.488;6.618;2023-04-24T12:17:23;4.30;;;2.60;;
5882;SDS011;2967;51.488;6.618;2023-04-24T12:22:43;6.07;;;2.40;;
5882;SDS011;2967;51.488;6.618;2023-04-24T12:27:51;2.43;;;2.03;;
5882;SDS011;2967;51.488;6.618;2023-04-24T12:32:57;5.83;;;2.40;;
5882;SDS011;2967;51.488;6.618;2023-04-24T12:38:08;9.03;;;3.00;;
5882;SDS011;2967;51.488;6.618;2023-04-24T12:43:15;3.23;;;2.80;;
5882;SDS011;2967;51.488;6.618;2023-04-24T12:48:18;5.60;;;2.60;;
5882;SDS011;2967;51.488;6.618;2023-04-24T12:53:24;4.67;;;1.43;;
5882;SDS011;2967;51.488;6.618;2023-04-24T12:58:32;3.20;;;1.83;;
5882;SDS011;2967;51.488;6.618;2023-04-24T13:03:35;3.67;;;1.60;;
5882;SDS011;2967;51.488;6.618;2023-04-24T13:08:39;2.67;;;1.20;;
5882;SDS011;2967;51.488;6.618;2023-04-24T13:13:41;6.50;;;1.80;;
5882;SDS011;2967;51.488;6.618;2023-04-24T13:18:44;3.30;;;1.30;;
5882;SDS011;2967;51.488;6.618;2023-04-24T13:23:48;3.17;;;1.50;;
5882;SDS011;2967;51.488;6.618;2023-04-24T13:28:51;2.60;;;1.60;;
5882;SDS011;2967;51.488;6.618;2023-04-24T13:33:53;3.53;;;1.93;;
5882;SDS011;2967;51.488;6.618;2023-04-24T13:38:57;5.97;;;3.37;;
5882;SDS011;2967;51.488;6.618;2023-04-24T13:44:00;5.93;;;3.20;;
5882;SDS011;2967;51.488;6.618;2023-04-24T13:49:03;4.27;;;2.43;;
5882;SDS011;2967;51.488;6.618;2023-04-24T13:54:07;5.90;;;2.20;;
5882;SDS011;2967;51.488;6.618;2023-04-24T13:59:11;6.00;;;2.97;;
5882;SDS011;2967;51.488;6.618;2023-04-24T14:04:14;6.13;;;2.13;;
5882;SDS011;2967;51.488;6.618;2023-04-24T14:09:19;2.57;;;1.60;;
5882;SDS011;2967;51.488;6.618;2023-04-24T14:14:22;7.03;;;1.60;;
5882;SDS011;2967;51.488;6.618;2023-04-24T14:19:26;10.20;;;3.27;;
5882;SDS011;2967;51.488;6.618;2023-04-24T14:24:30;3.87;;;2.10;;
5882;SDS011;2967;51.488;6.618;2023-04-24T14:29:32;4.87;;;2.17;;
5882;SDS011;2967;51.488;6.618;2023-04-24T14:34:35;3.30;;;2.13;;
5882;SDS011;2967;51.488;6.618;2023-04-24T14:39:40;5.20;;;2.37;;
5882;SDS011;2967;51.488;6.618;2023-04-24T14:44:48;3.17;;;1.90;;
5882;SDS011;2967;51.488;6.618;2023-04-24T14:49:50;4.17;;;1.97;;
5882;SDS011;2967;51.488;6.618;2023-04-24T14:54:54;4.83;;;1.70;;
5882;SDS011;2967;51.488;6.618;2023-04-24T14:59:57;2.60;;;1.23;;
5882;SDS011;2967;51.488;6.618;2023-04-24T15:05:00;3.67;;;1.53;;
5882;SDS011;2967;51.488;6.618;2023-04-24T15:10:04;7.33;;;1.70;;
5882;SDS011;2967;51.488;6.618;2023-04-24T15:15:08;5.23;;;1.80;;
5882;SDS011;2967;51.488;6.618;2023-04-24T15:20:11;3.23;;;1.60;;
5882;SDS011;2967;51.488;6.618;2023-04-24T15:25:15;6.50;;;2.07;;
5882;SDS011;2967;51.488;6.618;2023-04-24T15:30:18;4.00;;;1.80;;
5882;SDS011;2967;51.488;6.618;2023-04-24T15:35:20;3.83;;;1.83;;
5882;SDS011;2967;51.488;6.618;2023-04-24T15:40:24;3.03;;;1.80;;
5882;SDS011;2967;51.488;6.618;2023-04-24T15:45:27;4.53;;;2.20;;
5882;SDS011;2967;51.488;6.618;2023-04-24T15:50:29;5.80;;;2.80;;
5882;SDS011;2967;51.488;6.618;2023-04-24T15:55:34;5.70;;;2.37;;
5882;SDS011;2967;51.488;6.618;2023-04-24T16:00:38;3.83;;;2.35;;
5882;SDS011;2967;51.488;6.618;2023-04-24T16:05:41;4.53;;;2.43;;
5882;SDS011;2967;51.488;6.618;2023-04-24T16:10:44;4.53;;;2.43;;
5882;SDS011;2967;51.488;6.618;2023-04-24T16:15:47;3.87;;;1.97;;
5882;SDS011;2967;51.488;6.618;2023-04-24T16:20:50;5.90;;;2.40;;
5882;SDS011;2967;51.488;6.618;2023-04-24T16:25:54;3.70;;;1.87;;
5882;SDS011;2967;51.488;6.618;2023-04-24T16:30:57;5.00;;;2.10;;
5882;SDS011;2967;51.488;6.618;2023-04-24T16:36:00;6.67;;;2.00;;
5882;SDS011;2967;51.488;6.618;2023-04-24T16:41:07;4.20;;;2.27;;
5882;SDS011;2967;51.488;6.618;2023-04-24T16:46:10;2.80;;;1.50;;
5882;SDS011;2967;51.488;6.618;2023-04-24T16:51:13;3.63;;;1.73;;
5882;SDS011;2967;51.488;6.618;2023-04-24T16:56:17;6.07;;;2.07;;
5882;SDS011;2967;51.488;6.618;2023-04-24T17:01:20;5.87;;;2.40;;
5882;SDS011;2967;51.488;6.618;2023-04-24T17:06:22;5.23;;;2.37;;
5882;SDS011;2967;51.488;6.618;2023-04-24T17:11:27;4.80;;;2.27;;
5882;SDS011;2967;51.488;6.618;2023-04-24T17:16:31;7.53;;;2.90;;
5882;SDS011;2967;51.488;6.618;2023-04-24T17:21:34;5.40;;;2.37;;
5882;SDS011;2967;51.488;6.618;2023-04-24T17:26:38;7.03;;;2.80;;
5882;SDS011;2967;51.488;6.618;2023-04-24T17:31:41;3.30;;;2.10;;
5882;SDS011;2967;51.488;6.618;2023-04-24T17:36:44;7.30;;;2.90;;
5882;SDS011;2967;51.488;6.618;2023-04-24T17:41:48;5.67;;;2.63;;
5882;SDS011;2967;51.488;6.618;2023-04-24T17:46:50;5.60;;;2.43;;
5882;SDS011;2967;51.488;6.618;2023-04-24T17:51:53;7.77;;;3.33;;
5882;SDS011;2967;51.488;6.618;2023-04-24T17:56:57;7.67;;;3.13;;
5882;SDS011;2967;51.488;6.618;2023-04-24T18:01:59;9.00;;;3.57;;
5882;SDS011;2967;51.488;6.618;2023-04-24T18:07:02;8.00;;;3.47;;
5882;SDS011;2967;51.488;6.618;2023-04-24T18:12:06;10.67;;;3.57;;
5882;SDS011;2967;51.488;6.618;2023-04-24T18:17:09;7.40;;;3.83;;
5882;SDS011;2967;51.488;6.618;2023-04-24T18:22:11;5.37;;;3.60;;
5882;SDS011;2967;51.488;6.618;2023-04-24T18:27:15;9.53;;;2.93;;
5882;SDS011;2967;51.488;6.618;2023-04-24T18:32:19;11.17;;;5.67;;
5882;SDS011;2967;51.488;6.618;2023-04-24T18:37:22;10.73;;;5.60;;
5882;SDS011;2967;51.488;6.618;2023-04-24T18:42:26;8.83;;;3.90;;
5882;SDS011;2967;51.488;6.618;2023-04-24T18:47:29;6.80;;;3.30;;
5882;SDS011;2967;51.488;6.618;2023-04-24T18:52:32;6.50;;;3.80;;
5882;SDS011;2967;51.488;6.618;2023-04-24T18:57:36;16.33;;;9.90;;
5882;SDS011;2967;51.488;6.618;2023-04-24T19:02:39;15.53;;;4.60;;
5882;SDS011;2967;51.488;6.618;2023-04-24T19:07:42;8.17;;;3.70;;
5882;SDS011;2967;51.488;6.618;2023-04-24T19:12:46;7.07;;;3.40;;
5882;SDS011;2967;51.488;6.618;2023-04-24T19:17:49;7.37;;;3.23;;
5882;SDS011;2967;51.488;6.618;2023-04-24T19:22:52;47.17;;;30.10;;
5882;SDS011;2967;51.488;6.618;2023-04-24T19:27:56;9.50;;;4.30;;
5882;SDS011;2967;51.488;6.618;2023-04-24T19:32:59;7.70;;;3.20;;
5882;SDS011;2967;51.488;6.618;2023-04-24T19:38:02;5.97;;;2.80;;
5882;SDS011;2967;51.488;6.618;2023-04-24T19:43:07;6.10;;;2.87;;
5882;SDS011;2967;51.488;6.618;2023-04-24T19:48:10;6.53;;;3.23;;
5882;SDS011;2967;51.488;6.618;2023-04-24T19:53:12;12.97;;;5.93;;
5882;SDS011;2967;51.488;6.618;2023-04-24T19:58:17;7.43;;;3.23;;
5882;SDS011;2967;51.488;6.618;2023-04-24T20:03:20;12.25;;;4.13;;
5882;SDS011;2967;51.488;6.618;2023-04-24T20:08:34;9.70;;;4.67;;
5882;SDS011;2967;51.488;6.618;2023-04-24T20:13:40;12.77;;;3.73;;
5882;SDS011;2967;51.488;6.618;2023-04-24T20:18:43;11.67;;;3.67;;
5882;SDS011;2967;51.488;6.618;2023-04-24T20:23:46;9.80;;;5.03;;
5882;SDS011;2967;51.488;6.618;2023-04-24T20:28:50;12.13;;;4.07;;
5882;SDS011;2967;51.488;6.618;2023-04-24T20:33:53;8.87;;;4.50;;
5882;SDS011;2967;51.488;6.618;2023-04-24T20:38:56;11.47;;;4.67;;
5882;SDS011;2967;51.488;6.618;2023-04-24T20:44:01;9.40;;;4.90;;
5882;SDS011;2967;51.488;6.618;2023-04-24T20:49:04;7.60;;;4.17;;
5882;SDS011;2967;51.488;6.618;2023-04-24T20:54:07;16.03;;;4.93;;
5882;SDS011;2967;51.488;6.618;2023-04-24T20:59:11;10.53;;;4.20;;
5882;SDS011;2967;51.488;6.618;2023-04-24T21:04:14;10.87;;;4.93;;
5882;SDS011;2967;51.488;6.618;2023-04-24T21:09:17;12.07;;;4.50;;
5882;SDS011;2967;51.488;6.618;2023-04-24T21:14:21;16.10;;;5.77;;
5882;SDS011;2967;51.488;6.618;2023-04-24T21:19:24;12.57;;;5.07;;
5882;SDS011;2967;51.488;6.618;2023-04-24T21:24:26;9.43;;;4.50;;
5882;SDS011;2967;51.488;6.618;2023-04-24T21:29:30;10.87;;;5.17;;
5882;SDS011;2967;51.488;6.618;2023-04-24T21:34:33;16.83;;;5.90;;
5882;SDS011;2967;51.488;6.618;2023-04-24T21:39:36;9.73;;;5.47;;
5882;SDS011;2967;51.488;6.618;2023-04-24T21:44:40;17.70;;;5.60;;
5882;SDS011;2967;51.488;6.618;2023-04-24T21:49:42;13.20;;;6.17;;
5882;SDS011;2967;51.488;6.618;2023-04-24T21:54:45;18.75;;;6.20;;
5882;SDS011;2967;51.488;6.618;2023-04-24T21:59:49;12.00;;;5.50;;
5882;SDS011;2967;51.488;6.618;2023-04-24T22:04:52;10.10;;;4.80;;
5882;SDS011;2967;51.488;6.618;2023-04-24T22:09:56;11.10;;;5.30;;
5882;SDS011;2967;51.488;6.618;2023-04-24T22:15:00;11.23;;;5.03;;
5882;SDS011;2967;51.488;6.618;2023-04-24T22:20:04;15.52;;;6.28;;
5882;SDS011;2967;51.488;6.618;2023-04-24T22:25:08;15.60;;;5.80;;
5882;SDS011;2967;51.488;6.618;2023-04-24T22:30:12;17.33;;;5.53;;
5882;SDS011;2967;51.488;6.618;2023-04-24T22:35:15;10.90;;;4.60;;
5882;SDS011;2967;51.488;6.618;2023-04-24T22:40:19;11.67;;;5.20;;
5882;SDS011;2967;51.488;6.618;2023-04-24T22:45:23;19.00;;;5.47;;
5882;SDS011;2967;51.488;6.618;2023-04-24T22:50:26;20.20;;;5.70;;
5882;SDS011;2967;51.488;6.618;2023-04-24T22:55:29;11.37;;;4.30;;
5882;SDS011;2967;51.488;6.618;2023-04-24T23:00:34;13.70;;;5.77;;
5882;SDS011;2967;51.488;6.618;2023-04-24T23:05:36;21.10;;;5.70;;
5882;SDS011;2967;51.488;6.618;2023-04-24T23:10:39;15.80;;;5.60;;
5882;SDS011;2967;51.488;6.618;2023-04-24T23:15:44;15.43;;;5.50;;
5882;SDS011;2967;51.488;6.618;2023-04-24T23:20:46;14.63;;;6.13;;
5882;SDS011;2967;51.488;6.618;2023-04-24T23:25:49;16.88;;;6.50;;
5882;SDS011;2967;51.488;6.618;2023-04-24T23:30:53;11.43;;;4.93;;
5882;SDS011;2967;51.488;6.618;2023-04-24T23:35:56;14.53;;;5.37;;
5882;SDS011;2967;51.488;6.618;2023-04-24T23:40:59;19.67;;;4.67;;
5882;SDS011;2967;51.488;6.618;2023-04-24T23:46:03;11.57;;;4.97;;
5882;SDS011;2967;51.488;6.618;2023-04-24T23:51:06;9.93;;;4.87;;
5882;SDS011;2967;51.488;6.618;2023-04-24T23:56:09;17.38;;;6.28;;
